createdAt,value
2022-09-25T00:02:05.212Z,100132.41
2022-09-25T00:04:34.456Z,100041.91
2022-09-25T00:07:03.387Z,100060.50
2022-09-25T00:09:32.248Z,100036.81
2022-09-25T00:12:01.615Z,99933.19
2022-09-25T00:14:30.712Z,99969.94
2022-09-25T00:16:57.408Z,100129.56
2022-09-25T00:19:42.707Z,100109.31
2022-09-25T00:22:12.066Z,99899.81
2022-09-25T00:24:38.819Z,100101.47
2022-09-25T00:27:08.539Z,100008.66
2022-09-25T00:29:39.527Z,100116.50
2022-09-25T00:32:08.330Z,100112.97
2022-09-25T00:34:35.178Z,100005.88
2022-09-25T00:37:01.971Z,100024.38
2022-09-25T00:39:31.702Z,100109.47
2022-09-25T00:42:00.694Z,99997.94
2022-09-25T00:45:03.978Z,100102.44
2022-09-25T00:47:51.897Z,100107.72
2022-09-25T00:50:37.125Z,100109.50
2022-09-25T00:53:11.699Z,100108.66
2022-09-25T00:55:38.721Z,100090.25
2022-09-25T00:58:06.825Z,99979.59
2022-09-25T01:00:36.025Z,100078.16
2022-09-25T01:03:02.860Z,100099.16
2022-09-25T01:05:34.133Z,100065.81
2022-09-25T01:08:02.341Z,100099.03
2022-09-25T01:10:29.378Z,99937.72
2022-09-25T01:12:56.684Z,99955.31
2022-09-25T01:15:32.456Z,100008.00
2022-09-25T01:18:36.734Z,100105.31
2022-09-25T01:21:32.501Z,100097.47
2022-09-25T01:24:08.119Z,100093.06
2022-09-25T01:26:44.205Z,100103.56
2022-09-25T01:29:25.534Z,100106.97
2022-09-25T01:31:55.184Z,100108.56
2022-09-25T01:34:28.599Z,100105.97
2022-09-25T01:37:04.270Z,99886.81
2022-09-25T01:39:45.626Z,100052.59
2022-09-25T01:42:44.787Z,100006.22
2022-09-25T01:45:16.077Z,100091.34
2022-09-25T01:47:48.993Z,100090.50
2022-09-25T01:50:32.837Z,100061.53
2022-09-25T01:53:08.224Z,99897.53
2022-09-25T01:55:40.996Z,99962.31
2022-09-25T01:58:30.826Z,99776.78
2022-09-25T02:01:10.536Z,100100.94
2022-09-25T02:03:45.801Z,100084.44
2022-09-25T02:06:19.788Z,100083.53
2022-09-25T02:08:52.598Z,100086.94
2022-09-25T02:11:19.805Z,100085.16
2022-09-25T02:13:56.650Z,100071.09
2022-09-25T02:16:29.210Z,100101.66
2022-09-25T02:19:18.209Z,100101.59
2022-09-25T02:21:50.246Z,100093.72
2022-09-25T02:24:27.447Z,100109.41
2022-09-25T02:26:54.203Z,99938.31
2022-09-25T02:29:21.430Z,100071.59
2022-09-25T02:31:59.731Z,100101.31
2022-09-25T02:34:29.167Z,99910.91
2022-09-25T02:36:58.535Z,99909.25
2022-09-25T02:39:25.459Z,100086.47
2022-09-25T02:42:27.491Z,99996.75
2022-09-25T02:45:12.318Z,100089.63
2022-09-25T02:48:13.199Z,100098.25
2022-09-25T02:51:06.032Z,100099.88
2022-09-25T02:53:32.660Z,100090.97
2022-09-25T02:56:13.212Z,99969.66
2022-09-25T02:58:41.622Z,100089.94
2022-09-25T03:01:10.784Z,100038.34
2022-09-25T03:03:38.813Z,100005.88
2022-09-25T03:06:06.871Z,100071.56
2022-09-25T03:08:39.509Z,100070.63
2022-09-25T03:11:19.769Z,100062.72
2022-09-25T03:13:46.491Z,100069.63
2022-09-25T03:16:36.430Z,100061.69
2022-09-25T03:19:03.710Z,100062.56
2022-09-25T03:21:33.028Z,100065.19
2022-09-25T03:24:01.173Z,99908.97
2022-09-25T03:26:30.507Z,99987.72
2022-09-25T03:28:58.437Z,99972.94
2022-09-25T03:31:25.177Z,99894.84
2022-09-25T03:33:52.236Z,99985.34
2022-09-25T03:36:23.118Z,100054.69
2022-09-25T03:38:52.546Z,100016.06
2022-09-25T03:41:21.322Z,100064.34
2022-09-25T03:43:51.734Z,99946.84
2022-09-25T03:46:20.730Z,100072.88
2022-09-25T03:48:49.790Z,100063.38
2022-09-25T03:51:16.489Z,100031.69
2022-09-25T03:53:43.217Z,100035.34
2022-09-25T03:56:15.634Z,100088.84
2022-09-25T03:58:44.843Z,100088.84
2022-09-25T04:01:11.886Z,99967.81
2022-09-25T04:03:39.565Z,99898.63
2022-09-25T04:06:07.873Z,100026.66
2022-09-25T04:08:37.562Z,100100.44
2022-09-25T04:11:04.846Z,100089.13
2022-09-25T04:13:36.445Z,100084.88
2022-09-25T04:16:09.632Z,100084.16
2022-09-25T04:18:38.743Z,99806.22
2022-09-25T04:21:12.124Z,100076.38
2022-09-25T04:23:42.281Z,100103.47
2022-09-25T04:26:14.325Z,100049.34
2022-09-25T04:28:45.515Z,99980.06
2022-09-25T04:31:12.224Z,99880.13
2022-09-25T04:33:50.482Z,100080.06
2022-09-25T04:36:20.196Z,100082.69
2022-09-25T04:38:48.477Z,99964.38
2022-09-25T04:41:20.157Z,99900.44
2022-09-25T04:43:47.465Z,99932.09
2022-09-25T04:46:21.080Z,100075.94
2022-09-25T04:48:49.160Z,100051.50
2022-09-25T04:51:18.299Z,100098.59
2022-09-25T04:53:47.331Z,99857.72
2022-09-25T04:56:17.086Z,99986.50
2022-09-25T04:58:48.542Z,99930.41
2022-09-25T05:01:19.799Z,100070.66
2022-09-25T05:03:53.691Z,99932.03
2022-09-25T05:06:23.406Z,99935.66
2022-09-25T05:08:50.645Z,100082.03
2022-09-25T05:11:19.765Z,99931.16
2022-09-25T05:13:50.252Z,99988.97
2022-09-25T05:16:19.304Z,100083.66
2022-09-25T05:18:46.381Z,99993.31
2022-09-25T05:21:13.094Z,100087.00
2022-09-25T05:23:40.122Z,100060.69
2022-09-25T05:26:07.304Z,100003.69
2022-09-25T05:28:34.493Z,100093.22
2022-09-25T05:31:08.956Z,100091.63
2022-09-25T05:33:38.539Z,100086.56
2022-09-25T05:36:07.847Z,100085.81
2022-09-25T05:38:34.789Z,100081.56
2022-09-25T05:41:08.951Z,100047.44
2022-09-25T05:43:42.961Z,100084.28
2022-09-25T05:46:11.023Z,99979.00
2022-09-25T05:48:40.575Z,100003.66
2022-09-25T05:51:07.464Z,99947.38
2022-09-25T05:53:34.703Z,100073.75
2022-09-25T05:56:05.645Z,100088.78
2022-09-25T05:58:38.799Z,99944.22
2022-09-25T06:01:06.620Z,100068.69
2022-09-25T06:03:36.222Z,100047.75
2022-09-25T06:06:02.905Z,100093.34
2022-09-25T06:08:32.835Z,100124.72
2022-09-25T06:11:02.398Z,99658.97
2022-09-25T06:13:31.991Z,99993.47
2022-09-25T06:15:59.053Z,100039.06
2022-09-25T06:18:26.357Z,100084.63
2022-09-25T06:20:59.941Z,99969.00
2022-09-25T06:23:29.361Z,100143.28
2022-09-25T06:26:02.885Z,100113.69
2022-09-25T06:28:30.099Z,100079.56
2022-09-25T06:31:00.175Z,99941.09
2022-09-25T06:33:26.892Z,99981.34
2022-09-25T06:35:53.567Z,100026.91
2022-09-25T06:38:22.744Z,100140.78
2022-09-25T06:40:56.085Z,99922.63
2022-09-25T06:43:26.440Z,99956.03
2022-09-25T06:45:55.823Z,100004.28
2022-09-25T06:48:23.046Z,100112.16
2022-09-25T06:50:56.612Z,100083.25
2022-09-25T06:53:24.597Z,99972.75
2022-09-25T06:55:52.320Z,100128.88
2022-09-25T06:58:20.939Z,100011.53
2022-09-25T07:00:48.604Z,100090.53
2022-09-25T07:03:33.818Z,99999.53
2022-09-25T07:06:08.777Z,100123.94
2022-09-25T07:08:40.220Z,99975.06
2022-09-25T07:11:07.036Z,99776.38
2022-09-25T07:13:38.309Z,100011.88
2022-09-25T07:16:11.657Z,100113.56
2022-09-25T07:18:41.282Z,100117.13
2022-09-25T07:21:19.153Z,100114.56
2022-09-25T07:23:52.083Z,100015.59
2022-09-25T07:26:22.599Z,100084.97
2022-09-25T07:28:59.379Z,100106.94
2022-09-25T07:31:33.811Z,100099.97
2022-09-25T07:34:05.887Z,100109.53
2022-09-25T07:36:35.493Z,99882.09
2022-09-25T07:39:02.134Z,100085.16
2022-09-25T07:41:34.332Z,100007.28
2022-09-25T07:44:18.069Z,99866.44
2022-09-25T07:46:47.830Z,99954.06
2022-09-25T07:49:14.583Z,100035.44
2022-09-25T07:51:41.355Z,99840.50
2022-09-25T07:54:12.856Z,99875.50
2022-09-25T07:56:39.936Z,100082.72
2022-09-25T07:59:06.697Z,100011.91
2022-09-25T08:01:40.976Z,99929.72
2022-09-25T08:04:10.329Z,99946.28
2022-09-25T08:06:39.313Z,99993.50
2022-09-25T08:09:10.317Z,99908.75
2022-09-25T08:11:37.558Z,100037.28
2022-09-25T08:14:04.320Z,100028.50
2022-09-25T08:16:31.017Z,99978.66
2022-09-25T08:19:00.024Z,99822.97
2022-09-25T08:21:26.683Z,100045.94
2022-09-25T08:23:54.336Z,100033.69
2022-09-25T08:26:25.676Z,99980.34
2022-09-25T08:28:54.576Z,100099.25
2022-09-25T08:31:26.399Z,100044.13
2022-09-25T08:33:54.415Z,99940.06
2022-09-25T08:36:24.107Z,100089.72
2022-09-25T08:38:56.420Z,100080.97
2022-09-25T08:41:26.294Z,99945.41
2022-09-25T08:44:18.203Z,100070.47
2022-09-25T08:47:29.535Z,100073.97
2022-09-25T08:50:11.132Z,99962.94
2022-09-25T08:52:42.293Z,100066.13
2022-09-25T08:55:49.861Z,100074.84
2022-09-25T08:58:35.120Z,99869.31
2022-09-25T09:01:04.936Z,99904.34
2022-09-25T09:03:44.422Z,99985.59
2022-09-25T09:06:16.345Z,99929.66
2022-09-25T09:08:46.146Z,99981.19
2022-09-25T09:11:18.053Z,100041.59
2022-09-25T09:14:06.445Z,99857.97
2022-09-25T09:16:45.011Z,99957.63
2022-09-25T09:19:12.851Z,99990.88
2022-09-25T09:21:44.524Z,100027.56
2022-09-25T09:24:23.907Z,100000.44
2022-09-25T09:27:27.478Z,100082.66
2022-09-25T09:30:06.136Z,100087.06
2022-09-25T09:32:39.149Z,100080.97
2022-09-25T09:35:15.223Z,100084.41
2022-09-25T09:37:47.249Z,100076.53
2022-09-25T09:40:26.267Z,100080.00
2022-09-25T09:43:04.198Z,99897.09
2022-09-25T09:45:38.611Z,100083.47
2022-09-25T09:48:06.432Z,100079.91
2022-09-25T09:50:47.199Z,99932.00
2022-09-25T09:53:55.847Z,100082.53
2022-09-25T09:56:35.830Z,99966.94
2022-09-25T09:59:41.292Z,100078.16
2022-09-25T10:02:40.651Z,100072.94
2022-09-25T10:05:30.706Z,100057.22
2022-09-25T10:07:57.458Z,100015.28
2022-09-25T10:10:37.397Z,100064.31
2022-09-25T10:13:10.294Z,100074.84
2022-09-25T10:15:42.888Z,100076.56
2022-09-25T10:18:09.772Z,99920.00
2022-09-25T10:20:43.358Z,100073.88
2022-09-25T10:23:28.278Z,100073.00
2022-09-25T10:26:00.092Z,100078.22
2022-09-25T10:28:28.412Z,100031.81
2022-09-25T10:30:56.284Z,99975.00
2022-09-25T10:33:25.025Z,100054.53
2022-09-25T10:35:55.073Z,99976.53
2022-09-25T10:38:25.778Z,100078.03
2022-09-25T10:41:19.983Z,100028.06
2022-09-25T10:43:57.059Z,100069.31
2022-09-25T10:46:50.084Z,100064.06
2022-09-25T10:49:41.442Z,100069.38
2022-09-25T10:52:10.955Z,99897.91
2022-09-25T10:54:44.775Z,100052.78
2022-09-25T10:57:34.223Z,100047.56
2022-09-25T11:00:06.468Z,100052.81
2022-09-25T11:02:34.246Z,99863.72
2022-09-25T11:05:01.890Z,100044.00
2022-09-25T11:07:28.942Z,99987.94
2022-09-25T11:10:00.323Z,99905.53
2022-09-25T11:12:31.436Z,99816.66
2022-09-25T11:15:05.863Z,99931.28
2022-09-25T11:17:42.125Z,99922.56
2022-09-25T11:20:19.315Z,100034.53
2022-09-25T11:22:50.505Z,100032.78
2022-09-25T11:25:26.324Z,100033.72
2022-09-25T11:28:04.864Z,100036.31
2022-09-25T11:30:43.535Z,100010.91
2022-09-25T11:33:36.581Z,100044.03
2022-09-25T11:36:07.449Z,100037.84
2022-09-25T11:38:58.247Z,100036.13
2022-09-25T11:41:37.140Z,100038.75
2022-09-25T11:44:34.639Z,100042.25
2022-09-25T11:47:18.078Z,99905.88
2022-09-25T11:49:48.462Z,100038.03
2022-09-25T11:52:43.784Z,99980.31
2022-09-25T11:55:28.701Z,100035.41
2022-09-25T11:58:16.791Z,100033.72
2022-09-25T12:00:50.685Z,99991.69
2022-09-25T12:03:30.366Z,100024.94
2022-09-25T12:06:01.082Z,100024.97
2022-09-25T12:08:49.047Z,100015.38
2022-09-25T12:11:28.592Z,100021.47
2022-09-25T12:14:11.988Z,99777.44
2022-09-25T12:16:48.030Z,100029.25
2022-09-25T12:19:36.606Z,100028.38
2022-09-25T12:22:14.096Z,100026.63
2022-09-25T12:24:58.812Z,100041.41
2022-09-25T12:27:47.667Z,100030.91
2022-09-25T12:30:23.977Z,99986.38
2022-09-25T12:32:53.649Z,100026.63
2022-09-25T12:35:39.158Z,100024.84
2022-09-25T12:38:15.659Z,99954.78
2022-09-25T12:41:07.501Z,100013.44
2022-09-25T12:43:41.276Z,99998.66
2022-09-25T12:46:32.589Z,100010.91
2022-09-25T12:49:13.559Z,100022.25
2022-09-25T12:51:43.876Z,99972.44
2022-09-25T12:54:22.852Z,100015.25
2022-09-25T12:57:14.202Z,100015.25
2022-09-25T12:59:49.240Z,99758.19
2022-09-25T13:03:15.085Z,100023.13
2022-09-25T13:05:57.438Z,100023.06
2022-09-25T13:08:40.074Z,99917.13
2022-09-25T13:11:12.628Z,100014.03
2022-09-25T13:13:49.010Z,99893.19
2022-09-25T13:16:16.157Z,99917.78
2022-09-25T13:19:11.261Z,100013.97
2022-09-25T13:21:45.740Z,99859.22
2022-09-25T13:24:17.688Z,100007.16
2022-09-25T13:26:51.301Z,99869.00
2022-09-25T13:29:35.597Z,100009.88
2022-09-25T13:32:23.874Z,100007.31
2022-09-25T13:35:02.935Z,99878.69
2022-09-25T13:37:32.246Z,100005.53
2022-09-25T13:40:18.615Z,99890.03
2022-09-25T13:42:46.339Z,99942.47
2022-09-25T13:45:22.436Z,100001.97
2022-09-25T13:47:54.873Z,99994.06
2022-09-25T13:50:24.552Z,99995.81
2022-09-25T13:53:18.280Z,100001.97
2022-09-25T13:55:49.975Z,100004.56
2022-09-25T13:58:21.158Z,99978.31
2022-09-25T14:00:53.897Z,99994.03
2022-09-25T14:03:46.077Z,99998.28
2022-09-25T14:06:17.669Z,99993.03
2022-09-25T14:08:50.741Z,99996.47
2022-09-25T14:11:19.919Z,99994.66
2022-09-25T14:13:48.261Z,99998.88
2022-09-25T14:16:38.443Z,99915.53
2022-09-25T14:19:06.687Z,99993.31
2022-09-25T14:21:35.220Z,100013.34
2022-09-25T14:24:32.906Z,99985.47
2022-09-25T14:27:06.280Z,99763.19
2022-09-25T14:29:40.376Z,99989.09
2022-09-25T14:32:53.821Z,99982.13
2022-09-25T14:35:25.084Z,99675.84
2022-09-25T14:38:36.944Z,99735.34
2022-09-25T14:41:23.027Z,99977.81
2022-09-25T14:43:52.685Z,99971.78
2022-09-25T14:46:27.120Z,99724.97
2022-09-25T14:48:59.789Z,99936.59
2022-09-25T14:51:43.511Z,99944.38
2022-09-25T14:54:15.959Z,99965.19
2022-09-25T14:56:48.948Z,99976.38
2022-09-25T14:59:37.823Z,99971.09
2022-09-25T15:02:04.750Z,99970.13
2022-09-25T15:04:34.563Z,99630.88
2022-09-25T15:07:12.413Z,99972.50
2022-09-25T15:09:49.063Z,99967.31
2022-09-25T15:12:33.881Z,99966.56
2022-09-25T15:15:11.428Z,99915.78
2022-09-25T15:17:47.868Z,99729.22
2022-09-25T15:20:20.998Z,99864.78
2022-09-25T15:22:52.885Z,99672.06
2022-09-25T15:25:39.833Z,99974.25
2022-09-25T15:28:08.953Z,99964.63
2022-09-25T15:30:41.741Z,99961.91
2022-09-25T15:34:02.336Z,99956.72
2022-09-25T15:36:29.131Z,99693.16
2022-09-25T15:39:02.793Z,99975.91
2022-09-25T15:41:29.553Z,99879.66
2022-09-25T15:44:19.014Z,99950.94
2022-09-25T15:46:50.282Z,99918.56
2022-09-25T15:49:24.536Z,99915.94
2022-09-25T15:52:00.350Z,99960.56
2022-09-25T15:54:45.225Z,99857.19
2022-09-25T15:57:14.928Z,99909.59
2022-09-25T16:00:03.343Z,99446.16
2022-09-25T16:02:52.219Z,99945.91
2022-09-25T16:05:24.419Z,99660.69
2022-09-25T16:07:51.167Z,99763.13
2022-09-25T16:10:17.761Z,99940.72
2022-09-25T16:12:49.203Z,99792.81
2022-09-25T16:15:28.529Z,99936.44
2022-09-25T16:18:05.717Z,99931.19
2022-09-25T16:20:37.191Z,99845.38
2022-09-25T16:23:06.520Z,99842.78
2022-09-25T16:25:43.353Z,99880.47
2022-09-25T16:28:36.324Z,99690.69
2022-09-25T16:31:08.191Z,99892.91
2022-09-25T16:33:39.020Z,99806.16
2022-09-25T16:36:17.621Z,99927.94
2022-09-25T16:39:07.932Z,99933.22
2022-09-25T16:41:38.765Z,99939.31
2022-09-25T16:44:17.882Z,99920.19
2022-09-25T16:46:55.431Z,99770.41
2022-09-25T16:49:26.689Z,99896.56
2022-09-25T16:51:54.837Z,99914.97
2022-09-25T16:54:22.575Z,99728.72
2022-09-25T16:56:51.695Z,99738.34
2022-09-25T16:59:22.166Z,99904.56
2022-09-25T17:02:02.380Z,99812.72
2022-09-25T17:04:30.888Z,99905.44
2022-09-25T17:06:58.647Z,99661.47
2022-09-25T17:09:29.160Z,99873.94
2022-09-25T17:12:07.327Z,99900.22
2022-09-25T17:14:34.264Z,99600.56
2022-09-25T17:17:00.988Z,99912.44
2022-09-25T17:19:28.006Z,99844.19
2022-09-25T17:21:58.087Z,99808.34
2022-09-25T17:24:27.961Z,99675.53
2022-09-25T17:26:54.793Z,99655.41
2022-09-25T17:29:22.200Z,99692.00
2022-09-25T17:31:49.005Z,99686.78
2022-09-25T17:34:28.515Z,99890.66
2022-09-25T17:36:58.026Z,99848.66
2022-09-25T17:39:27.588Z,99845.19
2022-09-25T17:41:54.694Z,99892.44
2022-09-25T17:44:23.749Z,99708.78
2022-09-25T17:46:51.889Z,99889.81
2022-09-25T17:49:21.697Z,99688.72
2022-09-25T17:51:48.517Z,99818.97
2022-09-25T17:54:23.302Z,99541.16
2022-09-25T17:56:52.266Z,99739.41
2022-09-25T17:59:22.273Z,99619.78
2022-09-25T18:01:54.821Z,99608.69
2022-09-25T18:04:24.000Z,99759.50
2022-09-25T18:06:53.187Z,99501.78
2022-09-25T18:09:20.122Z,99779.59
2022-09-25T18:11:49.162Z,99809.31
2022-09-25T18:14:18.290Z,99753.25
2022-09-25T18:16:45.308Z,99631.03
2022-09-25T18:19:38.060Z,99840.78
2022-09-25T18:22:21.832Z,99862.69
2022-09-25T18:24:56.267Z,99871.34
2022-09-25T18:27:31.005Z,99867.91
2022-09-25T18:29:59.946Z,99814.53
2022-09-25T18:32:31.389Z,99774.34
2022-09-25T18:35:03.011Z,99705.19
2022-09-25T18:37:29.815Z,99873.09
2022-09-25T18:39:58.801Z,99835.44
2022-09-25T18:42:25.484Z,99741.94
2022-09-25T18:44:53.362Z,99668.44
2022-09-25T18:47:22.202Z,99873.09
2022-09-25T18:49:51.678Z,99876.56
2022-09-25T18:52:23.391Z,99842.38
2022-09-25T18:54:49.944Z,99871.28
2022-09-25T18:57:19.203Z,99872.19
2022-09-25T18:59:50.395Z,99874.81
2022-09-25T19:02:22.519Z,99878.31
2022-09-25T19:04:51.316Z,99748.09
2022-09-25T19:07:19.663Z,99725.41
2022-09-25T19:09:46.493Z,99636.19
2022-09-25T19:12:17.697Z,99584.78
2022-09-25T19:14:45.477Z,99868.88
2022-09-25T19:17:15.903Z,99660.00
2022-09-25T19:19:46.339Z,99587.53
2022-09-25T19:22:19.928Z,99554.25
2022-09-25T19:24:47.808Z,99604.00
2022-09-25T19:27:18.962Z,99854.97
2022-09-25T19:29:46.072Z,99845.41
2022-09-25T19:32:15.885Z,99659.28
2022-09-25T19:34:42.877Z,99671.50
2022-09-25T19:37:12.562Z,99606.88
2022-09-25T19:39:58.719Z,99727.38
2022-09-25T19:42:37.736Z,99706.38
2022-09-25T19:45:04.813Z,99666.13
2022-09-25T19:47:32.061Z,99670.56
2022-09-25T19:50:03.515Z,99541.34
2022-09-25T19:52:30.341Z,99710.63
2022-09-25T19:54:59.379Z,99583.09
2022-09-25T19:57:31.015Z,99850.66
2022-09-25T19:59:57.744Z,99858.50
2022-09-25T20:02:24.546Z,99472.38
2022-09-25T20:04:54.113Z,99859.34
2022-09-25T20:07:23.334Z,99672.25
2022-09-25T20:09:50.047Z,99660.06
2022-09-25T20:12:16.713Z,99801.59
2022-09-25T20:14:45.772Z,99833.94
2022-09-25T20:17:17.088Z,99699.34
2022-09-25T20:19:49.678Z,99619.78
2022-09-25T20:22:16.838Z,99656.25
2022-09-25T20:24:48.268Z,99731.47
2022-09-25T20:27:15.695Z,99708.69
2022-09-25T20:29:44.126Z,99853.81
2022-09-25T20:32:13.372Z,99621.22
2022-09-25T20:34:39.913Z,99851.28
2022-09-25T20:37:06.717Z,99734.09
2022-09-25T20:39:35.621Z,99654.69
2022-09-25T20:42:02.692Z,99564.81
2022-09-25T20:44:31.547Z,99739.47
2022-09-25T20:47:00.621Z,99605.03
2022-09-25T20:49:31.029Z,99685.47
2022-09-25T20:51:57.775Z,99818.34
2022-09-25T20:54:27.365Z,99644.41
2022-09-25T20:56:56.753Z,99825.25
2022-09-25T20:59:23.649Z,99793.69
2022-09-25T21:01:54.153Z,99578.66
2022-09-25T21:04:20.891Z,99818.19
2022-09-25T21:06:47.624Z,99559.47
2022-09-25T21:09:25.496Z,99648.56
2022-09-25T21:11:53.832Z,99687.91
2022-09-25T21:14:26.106Z,99820.84
2022-09-25T21:16:56.373Z,99480.22
2022-09-25T21:19:23.967Z,99600.66
2022-09-25T21:21:51.111Z,99780.69
2022-09-25T21:24:19.598Z,99543.13
2022-09-25T21:26:47.260Z,99678.53
2022-09-25T21:29:20.064Z,99652.38
2022-09-25T21:31:50.847Z,99633.16
2022-09-25T21:34:21.046Z,99759.00
2022-09-25T21:36:50.246Z,99661.19
2022-09-25T21:39:21.173Z,99707.47
2022-09-25T21:41:50.938Z,99791.44
2022-09-25T21:44:20.530Z,99781.84
2022-09-25T21:46:47.232Z,99636.84
2022-09-25T21:49:20.766Z,99774.88
2022-09-25T21:51:48.281Z,99562.69
2022-09-25T21:54:17.649Z,99758.34
2022-09-25T21:56:49.139Z,99773.13
2022-09-25T21:59:16.429Z,99597.59
2022-09-25T22:01:43.281Z,99754.78
2022-09-25T22:04:12.351Z,99762.63
2022-09-25T22:06:41.472Z,99637.63
2022-09-25T22:09:17.275Z,99775.72
2022-09-25T22:11:47.664Z,99628.13
2022-09-25T22:14:16.565Z,99804.47
2022-09-25T22:16:48.823Z,99759.16
2022-09-25T22:19:20.080Z,99754.81
2022-09-25T22:21:48.352Z,99748.69
2022-09-25T22:24:18.266Z,99514.69
2022-09-25T22:26:47.382Z,99718.06
2022-09-25T22:29:17.122Z,99570.56
2022-09-25T22:31:44.333Z,98942.81
2022-09-25T22:34:22.189Z,99707.66
2022-09-25T22:36:57.878Z,99750.50
2022-09-25T22:39:26.211Z,99609.03
2022-09-25T22:41:56.333Z,99613.41
2022-09-25T22:44:26.046Z,99734.81
2022-09-25T22:46:52.782Z,99645.72
2022-09-25T22:49:19.517Z,99673.66
2022-09-25T22:51:48.865Z,99560.19
2022-09-25T22:54:20.398Z,99726.09
2022-09-25T22:56:47.129Z,99636.09
2022-09-25T22:59:18.441Z,99603.78
2022-09-25T23:01:49.912Z,99488.56
2022-09-25T23:04:19.654Z,99717.31
2022-09-25T23:06:46.844Z,99705.09
2022-09-25T23:09:18.570Z,99707.66
2022-09-25T23:11:45.867Z,99709.41
2022-09-25T23:14:17.074Z,99521.63
2022-09-25T23:16:45.052Z,99441.38
2022-09-25T23:19:14.937Z,99656.94
2022-09-25T23:21:42.124Z,99318.81
2022-09-25T23:24:14.933Z,99464.94
2022-09-25T23:26:41.875Z,99474.56
2022-09-25T23:29:17.497Z,99689.28
2022-09-25T23:31:45.844Z,99443.13
2022-09-25T23:34:15.226Z,99512.06
2022-09-25T23:36:46.436Z,99412.72
2022-09-25T23:39:18.639Z,99525.00
2022-09-25T23:41:45.713Z,99679.75
2022-09-25T23:44:12.404Z,99549.69
2022-09-25T23:46:44.087Z,99661.47
2022-09-25T23:49:14.174Z,99500.84
2022-09-25T23:51:43.532Z,99679.72
2022-09-25T23:54:10.512Z,99376.00
2022-09-25T23:56:41.085Z,99264.50
2022-09-25T23:59:11.237Z,99625.63
